Time;durP1;ratioP1;P1;durP2;ratioP2;P2;SDS_P1;SDS_P2;PMS_P1;PMS_P2;Temp;Humidity;BMP_temperature;BMP_pressure;BME280_temperature;BME280_humidity;BME280_pressure;Samples;Min_cycle;Max_cycle;Signal;HPM_P1;HPM_P2
2022/09/16 13:36:29;;;;;;;4.10;2.70;;;;;;;21.56;51.85;98140.86;1763850;81;20851;-70
2022/09/16 13:39:03;;;;;;;4.05;2.85;;;;;;;21.62;49.62;98136.67;1795636;80;21473;-72
2022/09/16 13:41:44;;;;;;;4.83;2.95;;;;;;;21.56;49.49;98146.32;1755023;81;21452;-71
2022/09/16 13:44:39;;;;;;;4.62;3.20;;;;;;;21.67;49.81;98145.15;1735943;82;21496;-76
2022/09/16 13:47:13;;;;;;;5.83;3.00;;;;;;;21.63;49.39;98147.80;1759231;81;21231;-71
2022/09/16 13:50:01;;;;;;;6.25;2.90;;;;;;;21.52;49.00;98153.06;1748737;80;20871;-72
2022/09/16 13:52:33;;;;;;;6.15;2.90;;;;;;;21.32;49.61;98164.53;1791269;79;20889;-73
2022/09/16 13:55:04;;;;;;;2.90;2.55;;;;;;;21.33;50.01;98162.00;1777719;80;21491;-71
2022/09/16 13:58:02;;;;;;;3.37;2.87;;;;;;;21.32;49.48;98165.11;1783483;79;21007;-72
2022/09/16 14:00:41;;;;;;;6.40;3.25;;;;;;;21.16;49.66;98161.06;1793441;80;21478;-72
2022/09/16 14:03:17;;;;;;;4.60;3.37;;;;;;;20.93;49.42;98153.58;1763180;81;21001;-72
2022/09/16 14:06:17;;;;;;;4.85;2.95;;;;;;;20.74;49.72;98150.81;1821884;78;21398;-69
2022/09/16 14:09:24;;;;;;;4.42;3.10;;;;;;;20.67;49.87;98148.70;1761443;81;20902;-72
2022/09/16 14:12:08;;;;;;;3.37;3.00;;;;;;;20.76;50.62;98149.89;1792553;79;20950;-72
2022/09/16 14:14:35;;;;;;;4.70;2.90;;;;;;;20.82;50.63;98163.45;1824434;78;21162;-70
2022/09/16 14:17:04;;;;;;;5.05;2.80;;;;;;;20.79;52.30;98162.02;1785336;79;20947;-68
2022/09/16 14:19:36;;;;;;;6.17;3.58;;;;;;;20.73;51.60;98161.51;1756933;81;20891;-69
2022/09/16 14:22:20;;;;;;;8.35;3.00;;;;;;;20.59;52.04;98157.09;1746301;82;20832;-72
2022/09/16 14:24:47;;;;;;;8.98;3.33;;;;;;;20.49;52.58;98159.75;1778051;78;20908;-70
2022/09/16 14:27:32;;;;;;;7.30;3.30;;;;;;;20.53;52.83;98154.61;1784278;78;21349;-68
2022/09/16 14:30:17;;;;;;;4.17;2.90;;;;;;;20.59;52.93;98157.88;1753493;81;20937;-69
2022/09/16 14:32:46;;;;;;;10.23;3.87;;;;;;;20.43;53.57;98157.06;1737206;81;20863;-69
2022/09/16 14:35:21;;;;;;;3.80;2.87;;;;;;;20.33;53.86;98159.20;1763623;81;20903;-69
2022/09/16 14:37:56;;;;;;;6.58;3.00;;;;;;;20.18;54.42;98159.97;1794595;80;20990;-69
2022/09/16 14:40:24;;;;;;;3.92;3.22;;;;;;;19.85;55.67;98163.02;1806044;78;21931;-69
2022/09/16 14:43:05;;;;;;;5.90;3.47;;;;;;;19.73;56.85;98167.96;1815460;78;21419;-70
2022/09/16 14:45:34;;;;;;;6.10;3.47;;;;;;;19.59;58.37;98164.81;1822887;78;20924;-70
2022/09/16 14:48:06;;;;;;;7.08;3.60;;;;;;;19.43;58.82;98165.56;1789015;79;21453;-70
2022/09/16 14:50:38;;;;;;;5.17;3.02;;;;;;;19.45;59.88;98163.30;1817753;78;21418;-70
2022/09/16 14:53:08;;;;;;;6.03;3.42;;;;;;;19.41;60.20;98171.13;1784716;79;21183;-69
2022/09/16 14:55:38;;;;;;;5.95;3.05;;;;;;;19.34;61.04;98169.56;1768024;80;20887;-70
2022/09/16 14:58:03;;;;;;;4.15;3.05;;;;;;;19.27;60.93;98173.66;1792818;79;20951;-69
2022/09/16 15:00:44;;;;;;;5.85;3.47;;;;;;;19.21;61.63;98170.18;1827878;78;21434;-69
2022/09/16 15:03:36;;;;;;;6.87;3.10;;;;;;;19.13;62.31;98167.80;1814158;78;20862;-71
2022/09/16 15:06:10;;;;;;;5.15;2.80;;;;;;;19.10;61.33;98163.63;1809821;78;20854;-69
2022/09/16 15:08:55;;;;;;;4.78;2.90;;;;;;;19.38;59.19;98170.47;1809795;78;21483;-69
2022/09/16 15:11:35;;;;;;;2.98;2.50;;;;;;;19.61;57.69;98179.66;1812802;78;20909;-69
2022/09/16 15:14:07;;;;;;;3.95;2.80;;;;;;;20.00;57.45;98188.70;1808987;78;21519;-70
2022/09/16 15:16:33;;;;;;;3.67;2.80;;;;;;;20.00;57.45;98188.70;1827563;78;20963;-72
2022/09/16 15:19:03;;;;;;;3.50;2.90;;;;;;;20.26;55.63;98188.98;1814818;78;21206;-68
2022/09/16 15:21:33;;;;;;;4.62;2.72;;;;;;;19.68;55.79;98184.55;1827945;78;20900;-70
2022/09/16 15:24:02;;;;;;;3.72;2.75;;;;;;;19.37;57.50;98176.45;1814488;77;20978;-69
2022/09/16 15:26:44;;;;;;;6.20;2.67;;;;;;;19.37;57.50;98176.45;1857939;76;20942;-70
2022/09/16 15:29:19;;;;;;;3.55;2.80;;;;;;;19.00;58.84;98183.92;1802443;79;20952;-70
2022/09/16 15:31:46;;;;;;;3.25;2.87;;;;;;;19.00;58.84;98183.92;1789717;79;21873;-70
2022/09/16 15:34:20;;;;;;;10.35;3.40;;;;;;;18.81;59.14;98183.97;1846442;77;20821;-70
2022/09/16 15:36:51;;;;;;;3.75;2.65;;;;;;;18.66;59.90;98178.38;1825272;78;20905;-69
2022/09/16 15:39:31;;;;;;;8.70;3.22;;;;;;;18.62;61.08;98183.72;1838340;77;20998;-70
2022/09/16 15:42:17;;;;;;;5.10;3.25;;;;;;;18.71;61.80;98184.38;1809519;78;20943;-71
2022/09/16 15:44:54;;;;;;;10.25;3.10;;;;;;;18.51;62.44;98176.56;1793012;80;21143;-70
2022/09/16 15:47:30;;;;;;;7.33;2.93;;;;;;;18.26;64.52;98183.12;1761230;80;20923;-70
2022/09/16 15:50:12;;;;;;;7.33;3.20;;;;;;;17.97;67.76;98182.95;1807352;78;20844;-70
2022/09/16 15:53:00;;;;;;;6.70;3.50;;;;;;;17.74;71.54;98185.81;1808074;78;20914;-69
2022/09/16 15:55:35;;;;;;;7.60;3.37;;;;;;;17.57;74.34;98187.55;1815049;79;20875;-71
2022/09/16 15:58:19;;;;;;;6.35;4.28;;;;;;;17.44;76.32;98191.89;1811447;78;21236;-71
2022/09/16 16:01:12;;;;;;;9.35;4.33;;;;;;;17.34;79.82;98193.90;1811607;78;20963;-70
2022/09/16 16:03:57;;;;;;;7.45;4.20;;;;;;;17.19;83.04;98193.69;1794903;79;20888;-70
2022/09/16 16:06:54;;;;;;;8.15;4.50;;;;;;;17.07;83.19;98196.55;1814585;78;20883;-70
2022/09/16 16:09:32;;;;;;;6.75;3.92;;;;;;;16.90;85.27;98189.34;1795586;80;20928;-70
2022/09/16 16:12:03;;;;;;;6.05;3.70;;;;;;;16.84;85.79;98189.29;1802586;78;21500;-69
2022/09/16 16:14:31;;;;;;;9.40;3.72;;;;;;;16.74;87.32;98184.22;1794516;79;20908;-70
2022/09/16 16:17:14;;;;;;;6.45;3.50;;;;;;;16.64;89.68;98194.09;1815112;78;20879;-71
2022/09/16 16:19:46;;;;;;;4.75;3.22;;;;;;;16.49;93.89;98193.52;1795028;79;20959;-71
2022/09/16 16:22:13;;;;;;;7.40;3.25;;;;;;;16.27;96.87;98193.77;1805968;78;21014;-71
2022/09/16 16:24:41;;;;;;;3.23;2.93;;;;;;;16.21;99.01;98186.36;1806687;78;21302;-71
2022/09/16 16:27:07;;;;;;;4.58;3.22;;;;;;;16.08;100.00;98185.45;1796222;78;20908;-69
2022/09/16 16:29:37;;;;;;;4.87;3.45;;;;;;;15.95;100.00;98184.29;1794327;79;26531;-70
2022/09/16 16:32:13;;;;;;;6.87;3.45;;;;;;;15.80;100.00;98184.24;1816803;78;20867;-70
2022/09/16 16:34:42;;;;;;;3.45;3.12;;;;;;;15.63;100.00;98182.36;1810620;78;20907;-70
2022/09/16 16:37:11;;;;;;;6.83;3.83;;;;;;;15.49;100.00;98183.88;1793006;79;21108;-70
2022/09/16 16:39:38;;;;;;;4.28;3.10;;;;;;;15.40;100.00;98187.91;1783999;79;20921;-70
2022/09/16 16:42:05;;;;;;;6.92;4.12;;;;;;;15.39;100.00;98189.61;1790958;79;20858;-70
2022/09/16 16:44:32;;;;;;;5.20;3.52;;;;;;;15.31;100.00;98191.73;1859336;77;20887;-70
2022/09/16 16:46:58;;;;;;;6.25;3.72;;;;;;;15.17;100.00;98194.05;1827178;78;20928;-69
2022/09/16 16:49:25;;;;;;;3.87;3.17;;;;;;;15.12;100.00;98194.20;1839781;77;21158;-70
2022/09/16 16:51:57;;;;;;;3.58;3.20;;;;;;;14.99;100.00;98187.02;1842139;77;21413;-70
2022/09/16 16:54:21;;;;;;;4.47;3.75;;;;;;;14.97;100.00;98197.38;1825696;78;20880;-68
2022/09/16 16:56:48;;;;;;;4.40;3.47;;;;;;;14.91;100.00;98195.35;1836988;77;20978;-69
2022/09/16 16:59:17;;;;;;;5.05;3.72;;;;;;;14.87;100.00;98198.46;1832152;77;20951;-69
2022/09/16 17:01:45;;;;;;;5.83;3.35;;;;;;;14.83;100.00;98198.84;1804074;78;21229;-69
2022/09/16 17:04:12;;;;;;;7.35;4.00;;;;;;;14.82;100.00;98200.50;1844793;77;20907;-69
2022/09/16 17:06:39;;;;;;;4.33;3.92;;;;;;;14.81;100.00;98198.92;1826649;78;20937;-69
2022/09/16 17:09:08;;;;;;;6.53;3.80;;;;;;;14.77;100.00;98196.03;1799230;79;20830;-69
2022/09/16 17:11:37;;;;;;;4.97;3.80;;;;;;;14.64;100.00;98186.95;1786488;79;20842;-69
2022/09/16 17:14:05;;;;;;;10.48;3.83;;;;;;;14.53;100.00;98183.75;1802993;79;21203;-69
2022/09/16 17:16:33;;;;;;;9.30;4.40;;;;;;;14.44;100.00;98185.59;1790422;79;20909;-69
2022/09/16 17:19:01;;;;;;;7.63;3.83;;;;;;;14.32;100.00;98180.78;1800542;79;20877;-69
2022/09/16 17:21:30;;;;;;;9.15;3.58;;;;;;;14.23;100.00;98179.94;1857305;76;20860;-70
2022/09/16 17:23:58;;;;;;;5.35;3.50;;;;;;;14.19;100.00;98176.84;1828132;78;20903;-70
2022/09/16 17:26:26;;;;;;;;;;;;;;;14.04;100.00;98179.41;1855742;76;21233;-70
2022/09/16 17:28:55;;;;;;;8.38;4.03;;;;;;;14.05;100.00;98187.17;1850282;76;20071;-70
2022/09/16 17:31:28;;;;;;;7.92;3.80;;;;;;;13.99;100.00;98185.72;1827243;78;20916;-70
2022/09/16 17:33:56;;;;;;;7.78;4.08;;;;;;;13.96;100.00;98185.52;1801963;79;20917;-70
2022/09/16 17:36:25;;;;;;;5.00;3.45;;;;;;;13.90;100.00;98187.01;1795495;79;20866;-70
2022/09/16 17:38:57;;;;;;;6.25;4.05;;;;;;;13.92;100.00;98191.55;1802340;79;21471;-70
2022/09/16 17:41:25;;;;;;;7.72;4.42;;;;;;;13.87;100.00;98189.54;1759475;80;20873;-69
2022/09/16 17:43:54;;;;;;;;;;;;;;;13.78;100.00;98191.38;1756793;80;20910;-70
2022/09/16 17:46:22;;;;;;;7.55;4.33;;;;;;;13.74;100.00;98204.66;1760171;81;20124;-71
2022/09/16 17:48:49;;;;;;;5.72;5.12;;;;;;;13.66;100.00;98196.77;1814362;78;20889;-70
2022/09/16 17:51:17;;;;;;;5.80;4.75;;;;;;;13.56;100.00;98209.14;1815811;78;21205;-71
2022/09/16 17:53:44;;;;;;;7.53;4.87;;;;;;;13.53;100.00;98200.33;1817110;78;21002;-71
2022/09/16 17:56:15;;;;;;;9.33;4.75;;;;;;;13.56;100.00;98205.66;1823291;78;20950;-70
2022/09/16 17:58:44;;;;;;;7.05;4.80;;;;;;;13.55;100.00;98213.48;1818210;78;20903;-71
2022/09/16 18:01:15;;;;;;;7.45;4.95;;;;;;;13.56;100.00;98216.45;1762914;80;20936;-71
2022/09/16 18:03:45;;;;;;;8.63;4.75;;;;;;;13.55;100.00;98217.53;1803246;78;21237;-71
2022/09/16 18:06:19;;;;;;;5.75;4.97;;;;;;;13.51;100.00;98223.54;1794164;79;20962;-71
2022/09/16 18:08:47;;;;;;;6.08;4.75;;;;;;;13.43;100.00;98224.28;1814018;79;21493;-70
2022/09/16 18:11:16;;;;;;;7.53;4.72;;;;;;;13.33;100.00;98223.16;1794379;79;20991;-70
2022/09/16 18:13:45;;;;;;;8.95;5.42;;;;;;;13.32;100.00;98222.91;1814798;78;20892;-70
2022/09/16 18:16:17;;;;;;;;;;;;;;;13.31;100.00;98225.36;1795935;79;21136;-71
2022/09/16 18:18:47;;;;;;;12.25;6.53;;;;;;;13.21;100.00;98224.22;1758528;80;20419;-73
2022/09/16 18:21:18;;;;;;;6.92;5.55;;;;;;;13.16;100.00;98231.06;1780611;79;21466;-72
2022/09/16 18:23:48;;;;;;;12.45;7.83;;;;;;;13.01;100.00;98229.50;1784878;79;20924;-69
2022/09/16 18:26:14;;;;;;;39.45;22.10;;;;;;;12.89;100.00;98230.01;1769666;81;20836;-69
2022/09/16 18:28:44;;;;;;;17.50;10.50;;;;;;;12.78;100.00;98228.61;1755742;81;21250;-70
2022/09/16 18:31:16;;;;;;;13.50;8.35;;;;;;;12.63;100.00;98227.81;1812154;78;20942;-70
2022/09/16 18:33:42;;;;;;;17.00;8.20;;;;;;;12.54;100.00;98232.84;1806340;78;20919;-70
2022/09/16 18:36:13;;;;;;;12.98;9.38;;;;;;;12.47;100.00;98225.19;1808118;78;20964;-70
2022/09/16 18:38:40;;;;;;;18.75;9.63;;;;;;;12.39;100.00;98224.52;1806852;79;20922;-69
2022/09/16 18:41:21;;;;;;;11.28;8.33;;;;;;;12.39;100.00;98229.34;1826602;78;21974;-69
2022/09/16 18:43:59;;;;;;;11.03;7.55;;;;;;;12.32;100.00;98223.58;1854303;76;20985;-70
2022/09/16 18:46:31;;;;;;;14.90;8.68;;;;;;;12.28;100.00;98221.78;1828088;78;20877;-70
2022/09/16 18:48:58;;;;;;;9.63;7.90;;;;;;;12.20;100.00;98224.05;1850946;76;20838;-70
2022/09/16 18:51:37;;;;;;;14.23;9.13;;;;;;;12.18;100.00;98222.76;1850322;76;20866;-70
2022/09/16 18:54:08;;;;;;;10.75;8.58;;;;;;;12.15;100.00;98220.12;1811008;79;21795;-71
2022/09/16 18:56:35;;;;;;;14.23;9.63;;;;;;;12.02;100.00;98223.55;1830639;77;20890;-72
2022/09/16 18:59:07;;;;;;;10.75;8.30;;;;;;;12.04;100.00;98229.44;1859682;76;21516;-70
2022/09/16 19:01:35;;;;;;;10.95;8.33;;;;;;;12.05;100.00;98232.37;1853534;77;20950;-70
2022/09/16 19:04:07;;;;;;;;;;;;;;;12.13;100.00;98232.27;1803366;79;20876;-70
2022/09/16 19:06:38;;;;;;;8.60;6.40;;;;;;;12.17;100.00;98233.25;1850054;77;21941;-72
2022/09/16 19:09:08;;;;;;;8.65;7.35;;;;;;;12.22;100.00;98228.59;1847640;77;20903;-69
2022/09/16 19:11:35;;;;;;;20.00;17.37;;;;;;;12.29;100.00;98232.78;1826191;78;20868;-72
2022/09/16 19:14:05;;;;;;;12.13;9.45;;;;;;;12.31;100.00;98237.31;1784996;79;20940;-70
2022/09/16 19:16:32;;;;;;;10.88;6.85;;;;;;;12.27;100.00;98232.27;1816520;78;20979;-70
2022/09/16 19:19:00;;;;;;;11.68;7.65;;;;;;;12.26;100.00;98231.48;1824895;78;21236;-69
2022/09/16 19:21:27;;;;;;;9.80;7.83;;;;;;;12.33;100.00;98237.83;1858541;77;20852;-69
2022/09/16 19:23:57;;;;;;;7.25;6.28;;;;;;;12.37;100.00;98238.80;1845809;76;20862;-70
2022/09/16 19:26:26;;;;;;;11.83;7.37;;;;;;;12.42;100.00;98242.22;1850558;76;21487;-70
2022/09/16 19:28:52;;;;;;;;;;;;;;;12.48;100.00;98238.88;1798577;79;20861;-70
2022/09/16 19:31:19;;;;;;;9.88;6.03;;;;;;;12.43;100.00;98237.08;1848443;77;21220;-70
2022/09/16 19:33:48;;;;;;;9.50;5.97;;;;;;;12.37;100.00;98238.80;1847889;77;20887;-69
2022/09/16 19:36:20;;;;;;;10.60;6.90;;;;;;;12.36;100.00;98234.53;1847958;77;27994;-69
2022/09/16 19:38:48;;;;;;;7.03;6.33;;;;;;;12.32;100.00;98224.11;1839931;77;21013;-69
2022/09/16 19:41:16;;;;;;;7.03;5.87;;;;;;;12.27;100.00;98227.68;1773124;79;20856;-70
2022/09/16 19:43:44;;;;;;;;;;;;;;;12.29;100.00;98226.05;1766537;81;21247;-70
2022/09/16 19:46:13;;;;;;;10.08;5.92;;;;;;;12.29;100.00;98236.26;1783161;80;20096;-70
2022/09/16 19:48:43;;;;;;;8.68;5.92;;;;;;;12.37;100.00;98238.80;1782881;80;20958;-70
2022/09/16 19:51:11;;;;;;;8.38;5.83;;;;;;;12.47;100.00;98239.98;1780090;79;20985;-70
2022/09/16 19:53:39;;;;;;;6.75;5.65;;;;;;;12.47;100.00;98233.78;1761170;81;20927;-69
2022/09/16 19:56:13;;;;;;;6.20;5.67;;;;;;;12.48;100.00;98234.05;1753679;80;21129;-69
2022/09/16 19:58:41;;;;;;;15.40;5.05;;;;;;;12.44;100.00;98233.31;1777556;80;20966;-70
2022/09/16 20:01:12;;;;;;;8.35;5.50;;;;;;;12.41;100.00;98236.57;1782502;80;21343;-69
2022/09/16 20:03:42;;;;;;;8.10;5.45;;;;;;;12.43;100.00;98239.77;1770199;80;20915;-71
2022/09/16 20:06:20;;;;;;;7.25;6.10;;;;;;;12.40;100.00;98238.23;1760691;81;20911;-69
2022/09/16 20:08:54;;;;;;;8.78;5.30;;;;;;;12.36;100.00;98237.22;1741822;81;21164;-70
2022/09/16 20:11:23;;;;;;;7.65;5.37;;;;;;;12.29;100.00;98240.84;1793340;80;21511;-70
2022/09/16 20:13:53;;;;;;;;;;;;;;;12.19;100.00;98239.92;1766855;81;20924;-70
2022/09/16 20:16:23;;;;;;;8.90;5.75;;;;;;;12.07;100.00;98248.23;1788463;79;20119;-70
2022/09/16 20:18:50;;;;;;;6.80;6.10;;;;;;;11.97;100.00;98254.02;1791064;79;20969;-69
2022/09/16 20:21:22;;;;;;;6.87;6.20;;;;;;;11.89;100.00;98253.91;1736026;81;21147;-69
2022/09/16 20:23:50;;;;;;;6.47;5.87;;;;;;;11.82;100.00;98260.17;1738538;81;21000;-70
2022/09/16 20:26:18;;;;;;;7.62;6.50;;;;;;;11.85;100.00;98259.58;1739410;81;21449;-69
2022/09/16 20:28:49;;;;;;;7.50;6.72;;;;;;;11.83;100.00;98260.41;1782473;79;20873;-70
2022/09/16 20:31:19;;;;;;;9.20;6.28;;;;;;;11.73;100.00;98258.13;1793347;80;21589;-70
2022/09/16 20:33:46;;;;;;;6.60;5.90;;;;;;;11.69;100.00;98267.09;1793450;79;21827;-72
2022/09/16 20:36:15;;;;;;;13.75;6.65;;;;;;;11.57;100.00;98275.59;1793356;80;20910;-71
2022/09/16 20:38:42;;;;;;;8.88;7.08;;;;;;;11.44;100.00;98277.13;1781619;79;21418;-69
2022/09/16 20:41:15;;;;;;;7.75;6.22;;;;;;;11.36;100.00;98271.84;1785337;80;21397;-70
2022/09/16 20:43:42;;;;;;;9.00;6.55;;;;;;;11.36;100.00;98275.08;1792601;79;20889;-72
2022/09/16 20:46:17;;;;;;;10.40;6.20;;;;;;;11.34;100.00;98278.07;1793462;78;21892;-70
2022/09/16 20:48:44;;;;;;;10.10;6.62;;;;;;;11.26;100.00;98277.35;1844246;77;20816;-71
2022/09/16 20:51:20;;;;;;;10.98;6.80;;;;;;;11.21;100.00;98269.37;1827549;78;21435;-71
2022/09/16 20:53:52;;;;;;;9.33;6.75;;;;;;;11.17;100.00;98265.68;1852040;77;20915;-70
2022/09/16 20:56:19;;;;;;;9.58;7.55;;;;;;;11.10;100.00;98271.95;1848146;77;20969;-70
2022/09/16 20:58:47;;;;;;;7.97;6.97;;;;;;;11.11;100.00;98279.70;1848266;77;21209;-71
2022/09/16 21:01:25;;;;;;;7.50;6.80;;;;;;;11.17;100.00;98288.51;1846161;77;22176;-71
2022/09/16 21:04:02;;;;;;;9.68;7.70;;;;;;;11.21;100.00;98280.66;1844267;77;20880;-71
2022/09/16 21:06:29;;;;;;;14.23;7.10;;;;;;;11.20;100.00;98281.21;1826737;78;20951;-70
2022/09/16 21:08:58;;;;;;;10.20;7.03;;;;;;;11.22;100.00;98276.88;1836878;77;20840;-70
2022/09/16 21:11:27;;;;;;;9.70;7.25;;;;;;;11.25;100.00;98287.86;1837883;77;21177;-70
2022/09/16 21:14:00;;;;;;;;;;;;;;;11.21;100.00;98288.16;1842180;77;21375;-70
2022/09/16 21:16:30;;;;;;;9.55;6.97;;;;;;;11.22;100.00;98286.27;1838627;77;20092;-70
2022/09/16 21:19:00;;;;;;;8.33;6.85;;;;;;;11.22;100.00;98280.91;1826505;78;20864;-70
2022/09/16 21:21:28;;;;;;;8.15;6.20;;;;;;;11.28;100.00;98289.16;1836957;77;20964;-70
2022/09/16 21:23:57;;;;;;;10.98;7.67;;;;;;;11.30;100.00;98286.99;1824190;78;21144;-70
2022/09/16 21:26:29;;;;;;;9.23;6.65;;;;;;;11.25;100.00;98281.14;1854736;76;21413;-70
2022/09/16 21:29:07;;;;;;;9.38;6.28;;;;;;;11.20;100.00;98271.81;1826837;78;20920;-70
2022/09/16 21:31:36;;;;;;;8.03;6.60;;;;;;;11.16;100.00;98274.80;1859533;76;20863;-69
2022/09/16 21:34:05;;;;;;;7.67;6.97;;;;;;;11.07;100.00;98261.76;1827268;78;20957;-70
2022/09/16 21:36:34;;;;;;;9.20;6.75;;;;;;;10.98;100.00;98260.83;1842777;77;21179;-69
2022/09/16 21:39:01;;;;;;;9.28;6.87;;;;;;;10.89;100.00;98262.78;1845021;77;21488;-70
2022/09/16 21:41:27;;;;;;;7.95;7.25;;;;;;;10.91;100.00;98272.70;1814743;79;20872;-69
2022/09/16 21:43:56;;;;;;;11.50;6.62;;;;;;;10.82;100.00;98277.09;1809616;78;20872;-70
2022/09/16 21:46:31;;;;;;;11.15;6.90;;;;;;;10.76;100.00;98280.14;1806323;78;20907;-70
2022/09/16 21:49:00;;;;;;;6.60;5.55;;;;;;;10.69;100.00;98279.14;1794538;79;21269;-70
2022/09/16 21:51:33;;;;;;;11.12;7.50;;;;;;;10.68;100.00;98277.00;1771384;80;20930;-69
2022/09/16 21:54:06;;;;;;;56.42;20.65;;;;;;;10.62;100.00;98280.02;1791979;80;20896;-69
2022/09/16 21:56:33;;;;;;;44.15;17.67;;;;;;;10.60;100.00;98278.16;1794999;79;20908;-69
2022/09/16 21:58:59;;;;;;;46.23;18.55;;;;;;;10.55;100.00;98286.26;1789671;79;21001;-69
2022/09/16 22:01:28;;;;;;;45.75;19.57;;;;;;;10.51;100.00;98289.52;1844018;77;21406;-70
2022/09/16 22:04:01;;;;;;;51.92;19.15;;;;;;;10.50;100.00;98297.84;1844382;77;20960;-68
2022/09/16 22:06:28;;;;;;;37.23;16.48;;;;;;;10.49;100.00;98296.25;1812791;78;20869;-72
2022/09/16 22:08:59;;;;;;;30.27;14.83;;;;;;;10.50;100.00;98295.95;1822931;78;20914;-70
2022/09/16 22:11:29;;;;;;;35.63;17.10;;;;;;;10.54;100.00;98297.54;1816232;78;20818;-70
2022/09/16 22:13:59;;;;;;;33.45;17.77;;;;;;;10.61;100.00;98308.73;1825743;78;21791;-70
2022/09/16 22:16:29;;;;;;;30.43;14.03;;;;;;;10.59;100.00;98314.13;1816308;78;20899;-71
2022/09/16 22:19:06;;;;;;;23.55;13.75;;;;;;;10.59;100.00;98308.22;1825862;78;21393;-70
2022/09/16 22:21:36;;;;;;;23.10;11.35;;;;;;;10.62;100.00;98295.56;1825585;78;20910;-70
2022/09/16 22:24:05;;;;;;;18.80;11.43;;;;;;;10.64;100.00;98285.90;1820758;78;20823;-70
2022/09/16 22:26:32;;;;;;;21.30;11.70;;;;;;;10.63;100.00;98287.79;1825911;78;21223;-71
2022/09/16 22:28:59;;;;;;;22.65;12.60;;;;;;;10.66;100.00;98283.73;1823375;78;20985;-70
2022/09/16 22:31:29;;;;;;;18.42;11.65;;;;;;;10.61;100.00;98280.56;1825763;78;20863;-70
2022/09/16 22:33:59;;;;;;;18.20;11.63;;;;;;;10.60;100.00;98272.78;1825801;78;20898;-70
2022/09/16 22:36:28;;;;;;;19.92;12.47;;;;;;;10.60;100.00;98265.53;1817683;78;20960;-70
2022/09/16 22:39:04;;;;;;;20.68;11.80;;;;;;;10.63;100.00;98258.27;1826117;77;21116;-70
2022/09/16 22:41:32;;;;;;;12.68;9.10;;;;;;;10.60;100.00;98276.27;1859311;77;20899;-70
2022/09/16 22:43:59;;;;;;;21.45;11.48;;;;;;;10.64;100.00;98284.01;1859498;76;20969;-70
2022/09/16 22:46:30;;;;;;;16.30;10.10;;;;;;;10.75;100.00;98279.87;1852285;76;20905;-71
2022/09/16 22:48:58;;;;;;;14.60;10.03;;;;;;;10.76;100.00;98279.59;1853099;76;20873;-70
2022/09/16 22:51:26;;;;;;;15.67;10.30;;;;;;;10.75;100.00;98275.84;1846037;76;21221;-71
2022/09/16 22:53:53;;;;;;;16.43;10.37;;;;;;;10.75;100.00;98273.16;1796281;79;20916;-70
2022/09/16 22:56:23;;;;;;;17.70;9.58;;;;;;;10.72;100.00;98273.98;1846187;77;20896;-70
2022/09/16 22:58:52;;;;;;;20.45;9.23;;;;;;;10.79;100.00;98276.33;1819014;78;21422;-70
2022/09/16 23:01:22;;;;;;;16.57;9.70;;;;;;;10.84;100.00;98282.19;1848207;77;21019;-70
2022/09/16 23:03:55;;;;;;;18.30;9.45;;;;;;;10.82;100.00;98276.30;1827106;78;21239;-70
2022/09/16 23:06:23;;;;;;;14.78;9.10;;;;;;;10.79;100.00;98279.56;1844073;77;20939;-71
2022/09/16 23:08:51;;;;;;;11.63;8.75;;;;;;;10.79;100.00;98267.48;1824775;78;20979;-70
2022/09/16 23:11:22;;;;;;;12.88;10.32;;;;;;;10.83;100.00;98270.66;1859421;77;20934;-71
2022/09/16 23:13:51;;;;;;;11.40;9.03;;;;;;;10.90;100.00;98265.74;1858728;76;20923;-71
2022/09/16 23:16:28;;;;;;;13.90;10.48;;;;;;;10.92;100.00;98267.58;1827012;78;21352;-71
2022/09/16 23:18:58;;;;;;;16.52;9.80;;;;;;;10.92;100.00;98264.89;1847982;77;20852;-71
2022/09/16 23:21:26;;;;;;;13.83;9.93;;;;;;;10.95;100.00;98263.54;1826667;78;20833;-70
2022/09/16 23:23:55;;;;;;;18.50;9.70;;;;;;;11.00;100.00;98262.66;1842507;77;20930;-70
2022/09/16 23:26:28;;;;;;;13.78;9.10;;;;;;;11.01;100.00;98256.22;1827575;78;20951;-70
2022/09/16 23:28:57;;;;;;;15.08;9.43;;;;;;;11.05;100.00;98255.87;1845456;77;21870;-70
2022/09/16 23:31:27;;;;;;;14.85;10.03;;;;;;;11.08;100.00;98243.23;1826877;78;21525;-70
2022/09/16 23:33:54;;;;;;;13.53;9.25;;;;;;;11.13;100.00;98253.36;1811282;79;21450;-70
2022/09/16 23:36:21;;;;;;;10.75;8.70;;;;;;;11.16;100.00;98254.11;1802567;79;20901;-70
2022/09/16 23:38:48;;;;;;;12.13;9.63;;;;;;;11.16;100.00;98247.95;1801891;79;20865;-70
2022/09/16 23:41:18;;;;;;;10.63;9.48;;;;;;;11.18;100.00;98243.09;1793239;79;21246;-70
2022/09/16 23:43:45;;;;;;;14.25;10.10;;;;;;;11.22;100.00;98236.59;1763930;81;21427;-71
2022/09/16 23:46:14;;;;;;;12.73;10.30;;;;;;;11.14;100.00;98236.70;1732109;82;20917;-70
2022/09/16 23:48:43;;;;;;;13.38;10.43;;;;;;;11.14;100.00;98246.09;1776998;80;20911;-70
2022/09/16 23:51:11;;;;;;;14.58;9.85;;;;;;;11.14;100.00;98240.72;1774912;80;20915;-70
2022/09/16 23:53:41;;;;;;;16.55;9.53;;;;;;;11.16;100.00;98237.21;1764143;81;21588;-70
2022/09/16 23:56:09;;;;;;;12.15;9.35;;;;;;;11.21;100.00;98241.16;1793358;80;20866;-70
2022/09/16 23:58:36;;;;;;;;;;;;;;;11.23;100.00;98228.80;1765939;81;20931;-70
